sensor_id;sensor_type;location;lat;lon;timestamp;P1;durP1;ratioP1;P2;durP2;ratioP2
56712;SDS011;42589;45.536;9.032;2022-07-29T00:00:29;3.28;;;2.00;;
56712;SDS011;42589;45.536;9.032;2022-07-29T00:04:28;4.15;;;2.13;;
56712;SDS011;42589;45.536;9.032;2022-07-29T00:08:27;2.88;;;1.88;;
56712;SDS011;42589;45.536;9.032;2022-07-29T00:12:27;2.78;;;1.75;;
56712;SDS011;42589;45.536;9.032;2022-07-29T00:16:26;2.78;;;1.70;;
56712;SDS011;42589;45.536;9.032;2022-07-29T00:20:26;3.28;;;1.90;;
56712;SDS011;42589;45.536;9.032;2022-07-29T00:24:25;3.08;;;1.98;;
56712;SDS011;42589;45.536;9.032;2022-07-29T00:28:25;3.35;;;1.92;;
56712;SDS011;42589;45.536;9.032;2022-07-29T00:32:25;4.32;;;2.30;;
56712;SDS011;42589;45.536;9.032;2022-07-29T00:36:24;5.35;;;2.60;;
56712;SDS011;42589;45.536;9.032;2022-07-29T00:40:23;6.60;;;2.78;;
56712;SDS011;42589;45.536;9.032;2022-07-29T00:44:23;3.03;;;2.50;;
56712;SDS011;42589;45.536;9.032;2022-07-29T00:48:22;2.97;;;2.50;;
56712;SDS011;42589;45.536;9.032;2022-07-29T00:52:21;4.88;;;2.58;;
56712;SDS011;42589;45.536;9.032;2022-07-29T00:56:21;4.70;;;2.20;;
56712;SDS011;42589;45.536;9.032;2022-07-29T01:00:24;5.60;;;2.38;;
56712;SDS011;42589;45.536;9.032;2022-07-29T01:04:24;5.07;;;2.22;;
56712;SDS011;42589;45.536;9.032;2022-07-29T01:08:24;2.20;;;1.90;;
56712;SDS011;42589;45.536;9.032;2022-07-29T01:12:24;3.42;;;2.20;;
56712;SDS011;42589;45.536;9.032;2022-07-29T01:16:25;5.65;;;2.35;;
56712;SDS011;42589;45.536;9.032;2022-07-29T01:33:10;4.10;;;3.50;;
56712;SDS011;42589;45.536;9.032;2022-07-29T01:41:17;4.97;;;2.90;;
56712;SDS011;42589;45.536;9.032;2022-07-29T01:45:40;3.78;;;2.28;;
56712;SDS011;42589;45.536;9.032;2022-07-29T01:49:46;2.53;;;2.17;;
56712;SDS011;42589;45.536;9.032;2022-07-29T01:57:52;3.72;;;2.10;;
56712;SDS011;42589;45.536;9.032;2022-07-29T02:02:14;3.03;;;1.70;;
56712;SDS011;42589;45.536;9.032;2022-07-29T02:06:17;3.40;;;2.20;;
56712;SDS011;42589;45.536;9.032;2022-07-29T02:10:22;2.60;;;1.83;;
56712;SDS011;42589;45.536;9.032;2022-07-29T02:14:23;4.47;;;1.60;;
56712;SDS011;42589;45.536;9.032;2022-07-29T02:18:25;2.00;;;1.60;;
56712;SDS011;42589;45.536;9.032;2022-07-29T02:22:28;3.97;;;1.90;;
56712;SDS011;42589;45.536;9.032;2022-07-29T02:26:30;3.47;;;2.00;;
56712;SDS011;42589;45.536;9.032;2022-07-29T02:30:31;3.15;;;2.10;;
56712;SDS011;42589;45.536;9.032;2022-07-29T02:34:33;4.07;;;2.22;;
56712;SDS011;42589;45.536;9.032;2022-07-29T02:38:33;3.13;;;2.25;;
56712;SDS011;42589;45.536;9.032;2022-07-29T02:42:34;3.60;;;2.35;;
56712;SDS011;42589;45.536;9.032;2022-07-29T02:46:36;3.40;;;2.45;;
56712;SDS011;42589;45.536;9.032;2022-07-29T02:50:44;2.95;;;1.90;;
56712;SDS011;42589;45.536;9.032;2022-07-29T02:54:50;2.65;;;1.77;;
56712;SDS011;42589;45.536;9.032;2022-07-29T02:58:53;3.55;;;1.50;;
56712;SDS011;42589;45.536;9.032;2022-07-29T03:02:53;2.97;;;1.50;;
56712;SDS011;42589;45.536;9.032;2022-07-29T03:06:54;1.65;;;1.35;;
56712;SDS011;42589;45.536;9.032;2022-07-29T03:14:57;4.68;;;1.38;;
56712;SDS011;42589;45.536;9.032;2022-07-29T03:18:57;2.35;;;1.70;;
56712;SDS011;42589;45.536;9.032;2022-07-29T03:22:57;1.52;;;1.42;;
56712;SDS011;42589;45.536;9.032;2022-07-29T03:26:57;2.13;;;1.88;;
56712;SDS011;42589;45.536;9.032;2022-07-29T03:30:56;1.73;;;1.50;;
56712;SDS011;42589;45.536;9.032;2022-07-29T03:34:56;2.88;;;1.90;;
56712;SDS011;42589;45.536;9.032;2022-07-29T03:38:55;2.50;;;1.70;;
56712;SDS011;42589;45.536;9.032;2022-07-29T03:42:56;3.28;;;1.77;;
56712;SDS011;42589;45.536;9.032;2022-07-29T03:46:58;2.17;;;1.83;;
56712;SDS011;42589;45.536;9.032;2022-07-29T03:51:01;9.52;;;2.10;;
56712;SDS011;42589;45.536;9.032;2022-07-29T03:55:01;3.40;;;1.75;;
56712;SDS011;42589;45.536;9.032;2022-07-29T03:59:02;3.97;;;2.08;;
56712;SDS011;42589;45.536;9.032;2022-07-29T04:03:03;6.43;;;2.30;;
56712;SDS011;42589;45.536;9.032;2022-07-29T04:07:04;4.60;;;2.72;;
56712;SDS011;42589;45.536;9.032;2022-07-29T04:11:04;6.47;;;3.00;;
56712;SDS011;42589;45.536;9.032;2022-07-29T04:15:04;5.05;;;2.97;;
56712;SDS011;42589;45.536;9.032;2022-07-29T04:19:05;4.20;;;2.50;;
56712;SDS011;42589;45.536;9.032;2022-07-29T04:23:05;4.90;;;2.33;;
56712;SDS011;42589;45.536;9.032;2022-07-29T04:27:05;2.97;;;2.10;;
56712;SDS011;42589;45.536;9.032;2022-07-29T04:31:07;3.88;;;2.08;;
56712;SDS011;42589;45.536;9.032;2022-07-29T04:35:07;5.60;;;2.35;;
56712;SDS011;42589;45.536;9.032;2022-07-29T04:39:06;3.70;;;2.08;;
56712;SDS011;42589;45.536;9.032;2022-07-29T04:43:05;4.03;;;2.50;;
56712;SDS011;42589;45.536;9.032;2022-07-29T04:47:07;3.45;;;2.00;;
56712;SDS011;42589;45.536;9.032;2022-07-29T04:51:06;2.72;;;1.90;;
56712;SDS011;42589;45.536;9.032;2022-07-29T04:55:06;5.15;;;1.95;;
56712;SDS011;42589;45.536;9.032;2022-07-29T04:59:05;2.53;;;2.00;;
56712;SDS011;42589;45.536;9.032;2022-07-29T05:03:05;5.38;;;1.98;;
56712;SDS011;42589;45.536;9.032;2022-07-29T05:07:05;5.40;;;1.85;;
56712;SDS011;42589;45.536;9.032;2022-07-29T05:11:04;3.38;;;1.70;;
56712;SDS011;42589;45.536;9.032;2022-07-29T05:15:05;3.45;;;1.85;;
56712;SDS011;42589;45.536;9.032;2022-07-29T05:19:05;4.15;;;2.00;;
56712;SDS011;42589;45.536;9.032;2022-07-29T05:23:05;2.55;;;1.90;;
56712;SDS011;42589;45.536;9.032;2022-07-29T05:27:04;2.97;;;1.70;;
56712;SDS011;42589;45.536;9.032;2022-07-29T05:31:07;4.55;;;2.28;;
56712;SDS011;42589;45.536;9.032;2022-07-29T05:35:07;3.00;;;1.90;;
56712;SDS011;42589;45.536;9.032;2022-07-29T05:39:07;4.53;;;2.33;;
56712;SDS011;42589;45.536;9.032;2022-07-29T05:43:07;5.35;;;2.05;;
56712;SDS011;42589;45.536;9.032;2022-07-29T05:47:06;4.68;;;2.78;;
56712;SDS011;42589;45.536;9.032;2022-07-29T05:51:06;4.93;;;2.88;;
56712;SDS011;42589;45.536;9.032;2022-07-29T05:55:06;5.10;;;3.00;;
56712;SDS011;42589;45.536;9.032;2022-07-29T05:59:07;6.90;;;3.25;;
56712;SDS011;42589;45.536;9.032;2022-07-29T06:03:07;6.32;;;3.30;;
56712;SDS011;42589;45.536;9.032;2022-07-29T06:07:07;6.00;;;3.15;;
56712;SDS011;42589;45.536;9.032;2022-07-29T06:11:07;6.07;;;2.53;;
56712;SDS011;42589;45.536;9.032;2022-07-29T06:15:06;6.35;;;2.92;;
56712;SDS011;42589;45.536;9.032;2022-07-29T06:19:05;4.18;;;2.20;;
56712;SDS011;42589;45.536;9.032;2022-07-29T06:23:04;5.15;;;2.35;;
56712;SDS011;42589;45.536;9.032;2022-07-29T06:27:03;4.38;;;1.85;;
56712;SDS011;42589;45.536;9.032;2022-07-29T06:31:03;2.78;;;2.20;;
56712;SDS011;42589;45.536;9.032;2022-07-29T06:35:05;2.55;;;1.88;;
56712;SDS011;42589;45.536;9.032;2022-07-29T06:39:06;2.58;;;2.00;;
56712;SDS011;42589;45.536;9.032;2022-07-29T06:43:23;4.78;;;1.92;;
56712;SDS011;42589;45.536;9.032;2022-07-29T06:47:22;3.90;;;1.60;;
56712;SDS011;42589;45.536;9.032;2022-07-29T06:51:21;3.15;;;1.80;;
56712;SDS011;42589;45.536;9.032;2022-07-29T06:55:21;2.92;;;2.05;;
56712;SDS011;42589;45.536;9.032;2022-07-29T06:59:20;4.78;;;1.80;;
56712;SDS011;42589;45.536;9.032;2022-07-29T07:03:20;3.30;;;1.70;;
56712;SDS011;42589;45.536;9.032;2022-07-29T07:07:18;2.45;;;1.60;;
56712;SDS011;42589;45.536;9.032;2022-07-29T07:11:19;3.75;;;1.70;;
56712;SDS011;42589;45.536;9.032;2022-07-29T07:15:18;3.85;;;1.88;;
56712;SDS011;42589;45.536;9.032;2022-07-29T07:19:18;5.75;;;2.50;;
56712;SDS011;42589;45.536;9.032;2022-07-29T07:23:20;4.60;;;2.13;;
56712;SDS011;42589;45.536;9.032;2022-07-29T07:27:20;2.97;;;1.90;;
56712;SDS011;42589;45.536;9.032;2022-07-29T07:31:20;3.13;;;1.98;;
56712;SDS011;42589;45.536;9.032;2022-07-29T07:35:19;3.97;;;2.40;;
56712;SDS011;42589;45.536;9.032;2022-07-29T07:39:19;2.92;;;1.70;;
56712;SDS011;42589;45.536;9.032;2022-07-29T07:43:18;2.20;;;1.92;;
56712;SDS011;42589;45.536;9.032;2022-07-29T07:47:18;5.25;;;1.67;;
56712;SDS011;42589;45.536;9.032;2022-07-29T07:51:17;3.83;;;2.00;;
56712;SDS011;42589;45.536;9.032;2022-07-29T07:55:17;3.00;;;2.13;;
56712;SDS011;42589;45.536;9.032;2022-07-29T07:59:17;3.40;;;1.63;;
56712;SDS011;42589;45.536;9.032;2022-07-29T08:03:17;3.42;;;2.00;;
56712;SDS011;42589;45.536;9.032;2022-07-29T08:07:16;3.00;;;1.83;;
56712;SDS011;42589;45.536;9.032;2022-07-29T08:11:15;3.47;;;2.00;;
56712;SDS011;42589;45.536;9.032;2022-07-29T08:15:14;2.88;;;1.80;;
56712;SDS011;42589;45.536;9.032;2022-07-29T08:19:15;4.43;;;1.80;;
56712;SDS011;42589;45.536;9.032;2022-07-29T08:23:14;3.08;;;1.90;;
56712;SDS011;42589;45.536;9.032;2022-07-29T08:27:32;4.57;;;2.50;;
56712;SDS011;42589;45.536;9.032;2022-07-29T08:31:31;2.72;;;1.83;;
56712;SDS011;42589;45.536;9.032;2022-07-29T08:35:31;3.28;;;1.63;;
56712;SDS011;42589;45.536;9.032;2022-07-29T08:39:30;3.15;;;1.73;;
56712;SDS011;42589;45.536;9.032;2022-07-29T08:43:29;2.53;;;1.77;;
56712;SDS011;42589;45.536;9.032;2022-07-29T08:47:29;5.97;;;1.92;;
56712;SDS011;42589;45.536;9.032;2022-07-29T08:51:28;3.10;;;1.63;;
56712;SDS011;42589;45.536;9.032;2022-07-29T08:55:30;2.10;;;1.80;;
56712;SDS011;42589;45.536;9.032;2022-07-29T08:59:29;2.78;;;1.92;;
56712;SDS011;42589;45.536;9.032;2022-07-29T09:03:30;3.75;;;1.90;;
56712;SDS011;42589;45.536;9.032;2022-07-29T09:07:34;3.38;;;1.90;;
56712;SDS011;42589;45.536;9.032;2022-07-29T09:11:34;4.20;;;1.92;;
56712;SDS011;42589;45.536;9.032;2022-07-29T09:15:33;2.00;;;1.77;;
56712;SDS011;42589;45.536;9.032;2022-07-29T09:19:44;3.22;;;2.13;;
56712;SDS011;42589;45.536;9.032;2022-07-29T09:28:12;2.70;;;1.65;;
56712;SDS011;42589;45.536;9.032;2022-07-29T09:32:27;3.25;;;1.85;;
56712;SDS011;42589;45.536;9.032;2022-07-29T09:36:43;2.70;;;2.15;;
56712;SDS011;42589;45.536;9.032;2022-07-29T09:40:44;2.70;;;1.98;;
56712;SDS011;42589;45.536;9.032;2022-07-29T09:44:55;3.88;;;2.28;;
56712;SDS011;42589;45.536;9.032;2022-07-29T09:49:07;2.35;;;1.90;;
56712;SDS011;42589;45.536;9.032;2022-07-29T09:53:07;3.65;;;2.20;;
56712;SDS011;42589;45.536;9.032;2022-07-29T10:01:28;2.90;;;1.92;;
56712;SDS011;42589;45.536;9.032;2022-07-29T10:05:28;3.00;;;2.20;;
56712;SDS011;42589;45.536;9.032;2022-07-29T10:09:31;2.90;;;2.28;;
56712;SDS011;42589;45.536;9.032;2022-07-29T10:13:31;3.92;;;1.90;;
56712;SDS011;42589;45.536;9.032;2022-07-29T10:17:35;2.92;;;2.42;;
56712;SDS011;42589;45.536;9.032;2022-07-29T10:21:35;2.75;;;2.40;;
56712;SDS011;42589;45.536;9.032;2022-07-29T10:25:35;3.30;;;2.50;;
56712;SDS011;42589;45.536;9.032;2022-07-29T10:29:37;3.00;;;2.30;;
56712;SDS011;42589;45.536;9.032;2022-07-29T10:42:30;5.00;;;2.50;;
56712;SDS011;42589;45.536;9.032;2022-07-29T10:46:36;2.83;;;2.28;;
56712;SDS011;42589;45.536;9.032;2022-07-29T10:50:54;4.97;;;3.20;;
56712;SDS011;42589;45.536;9.032;2022-07-29T10:54:58;4.40;;;2.45;;
56712;SDS011;42589;45.536;9.032;2022-07-29T11:04:00;4.35;;;3.13;;
56712;SDS011;42589;45.536;9.032;2022-07-29T11:08:18;4.13;;;3.58;;
56712;SDS011;42589;45.536;9.032;2022-07-29T11:12:45;5.30;;;3.45;;
56712;SDS011;42589;45.536;9.032;2022-07-29T11:20:58;5.18;;;4.00;;
56712;SDS011;42589;45.536;9.032;2022-07-29T11:25:14;6.57;;;4.72;;
56712;SDS011;42589;45.536;9.032;2022-07-29T11:29:21;6.80;;;5.22;;
56712;SDS011;42589;45.536;9.032;2022-07-29T11:33:30;9.32;;;4.78;;
56712;SDS011;42589;45.536;9.032;2022-07-29T11:37:32;7.78;;;4.65;;
56712;SDS011;42589;45.536;9.032;2022-07-29T11:41:31;6.57;;;4.57;;
56712;SDS011;42589;45.536;9.032;2022-07-29T11:45:44;4.80;;;3.50;;
56712;SDS011;42589;45.536;9.032;2022-07-29T11:49:51;7.00;;;4.80;;
56712;SDS011;42589;45.536;9.032;2022-07-29T11:53:50;5.63;;;3.38;;
56712;SDS011;42589;45.536;9.032;2022-07-29T11:57:57;5.63;;;3.53;;
56712;SDS011;42589;45.536;9.032;2022-07-29T12:02:06;5.68;;;3.92;;
56712;SDS011;42589;45.536;9.032;2022-07-29T12:06:13;7.75;;;4.53;;
56712;SDS011;42589;45.536;9.032;2022-07-29T12:10:12;6.68;;;4.05;;
56712;SDS011;42589;45.536;9.032;2022-07-29T12:14:26;5.00;;;3.65;;
56712;SDS011;42589;45.536;9.032;2022-07-29T12:18:26;11.30;;;4.70;;
56712;SDS011;42589;45.536;9.032;2022-07-29T12:22:30;4.43;;;3.47;;
56712;SDS011;42589;45.536;9.032;2022-07-29T12:26:30;4.43;;;3.25;;
56712;SDS011;42589;45.536;9.032;2022-07-29T12:30:37;6.78;;;3.33;;
56712;SDS011;42589;45.536;9.032;2022-07-29T12:34:37;5.45;;;3.42;;
56712;SDS011;42589;45.536;9.032;2022-07-29T12:38:37;3.83;;;3.25;;
56712;SDS011;42589;45.536;9.032;2022-07-29T12:42:39;4.72;;;3.83;;
56712;SDS011;42589;45.536;9.032;2022-07-29T12:47:03;3.55;;;3.22;;
56712;SDS011;42589;45.536;9.032;2022-07-29T12:51:03;4.75;;;3.30;;
56712;SDS011;42589;45.536;9.032;2022-07-29T13:04:04;6.03;;;3.63;;
56712;SDS011;42589;45.536;9.032;2022-07-29T13:08:11;5.03;;;4.30;;
56712;SDS011;42589;45.536;9.032;2022-07-29T13:12:11;6.25;;;3.70;;
56712;SDS011;42589;45.536;9.032;2022-07-29T13:16:13;5.63;;;5.00;;
56712;SDS011;42589;45.536;9.032;2022-07-29T13:20:39;6.40;;;4.03;;
56712;SDS011;42589;45.536;9.032;2022-07-29T13:24:49;6.03;;;4.88;;
56712;SDS011;42589;45.536;9.032;2022-07-29T13:28:51;4.68;;;4.28;;
56712;SDS011;42589;45.536;9.032;2022-07-29T13:32:56;5.47;;;4.32;;
56712;SDS011;42589;45.536;9.032;2022-07-29T13:36:58;6.07;;;4.60;;
56712;SDS011;42589;45.536;9.032;2022-07-29T13:41:20;7.32;;;4.40;;
56712;SDS011;42589;45.536;9.032;2022-07-29T13:45:19;6.07;;;4.40;;
56712;SDS011;42589;45.536;9.032;2022-07-29T13:49:18;5.68;;;4.93;;
56712;SDS011;42589;45.536;9.032;2022-07-29T13:53:18;7.80;;;4.85;;
56712;SDS011;42589;45.536;9.032;2022-07-29T13:57:17;5.70;;;4.88;;
56712;SDS011;42589;45.536;9.032;2022-07-29T14:01:37;5.85;;;4.30;;
56712;SDS011;42589;45.536;9.032;2022-07-29T14:05:38;6.68;;;4.68;;
56712;SDS011;42589;45.536;9.032;2022-07-29T14:09:37;6.78;;;4.72;;
56712;SDS011;42589;45.536;9.032;2022-07-29T14:13:37;4.85;;;4.07;;
56712;SDS011;42589;45.536;9.032;2022-07-29T14:17:36;5.38;;;4.53;;
56712;SDS011;42589;45.536;9.032;2022-07-29T14:21:35;6.28;;;4.20;;
56712;SDS011;42589;45.536;9.032;2022-07-29T14:25:35;5.22;;;4.30;;
56712;SDS011;42589;45.536;9.032;2022-07-29T14:29:34;5.20;;;4.70;;
56712;SDS011;42589;45.536;9.032;2022-07-29T14:33:33;7.53;;;4.35;;
56712;SDS011;42589;45.536;9.032;2022-07-29T14:37:32;7.22;;;4.22;;
56712;SDS011;42589;45.536;9.032;2022-07-29T14:41:31;5.13;;;3.97;;
56712;SDS011;42589;45.536;9.032;2022-07-29T14:45:33;4.30;;;3.90;;
56712;SDS011;42589;45.536;9.032;2022-07-29T14:49:33;4.45;;;4.00;;
56712;SDS011;42589;45.536;9.032;2022-07-29T14:53:33;5.47;;;4.13;;
56712;SDS011;42589;45.536;9.032;2022-07-29T14:57:32;5.72;;;3.10;;
56712;SDS011;42589;45.536;9.032;2022-07-29T15:01:32;4.47;;;3.05;;
56712;SDS011;42589;45.536;9.032;2022-07-29T15:05:31;5.07;;;3.00;;
56712;SDS011;42589;45.536;9.032;2022-07-29T15:09:31;4.57;;;3.03;;
56712;SDS011;42589;45.536;9.032;2022-07-29T15:13:30;3.97;;;3.03;;
56712;SDS011;42589;45.536;9.032;2022-07-29T15:17:29;3.72;;;2.83;;
56712;SDS011;42589;45.536;9.032;2022-07-29T15:21:28;2.75;;;2.55;;
56712;SDS011;42589;45.536;9.032;2022-07-29T15:25:28;6.28;;;2.85;;
56712;SDS011;42589;45.536;9.032;2022-07-29T15:29:27;4.60;;;2.83;;
56712;SDS011;42589;45.536;9.032;2022-07-29T15:33:27;3.00;;;2.63;;
56712;SDS011;42589;45.536;9.032;2022-07-29T15:37:26;4.88;;;2.97;;
56712;SDS011;42589;45.536;9.032;2022-07-29T15:41:26;10.68;;;4.35;;
56712;SDS011;42589;45.536;9.032;2022-07-29T15:45:25;18.65;;;7.20;;
56712;SDS011;42589;45.536;9.032;2022-07-29T15:49:43;9.73;;;4.05;;
56712;SDS011;42589;45.536;9.032;2022-07-29T15:53:42;3.10;;;2.03;;
56712;SDS011;42589;45.536;9.032;2022-07-29T15:57:42;4.60;;;3.70;;
56712;SDS011;42589;45.536;9.032;2022-07-29T16:01:42;7.03;;;5.28;;
56712;SDS011;42589;45.536;9.032;2022-07-29T16:05:41;9.90;;;6.50;;
56712;SDS011;42589;45.536;9.032;2022-07-29T16:09:41;6.63;;;4.38;;
56712;SDS011;42589;45.536;9.032;2022-07-29T16:13:40;6.93;;;4.75;;
56712;SDS011;42589;45.536;9.032;2022-07-29T16:17:39;9.55;;;5.78;;
56712;SDS011;42589;45.536;9.032;2022-07-29T16:21:40;8.20;;;5.55;;
56712;SDS011;42589;45.536;9.032;2022-07-29T16:25:39;9.82;;;5.88;;
56712;SDS011;42589;45.536;9.032;2022-07-29T16:29:38;8.30;;;5.55;;
56712;SDS011;42589;45.536;9.032;2022-07-29T16:33:37;10.82;;;5.35;;
56712;SDS011;42589;45.536;9.032;2022-07-29T16:37:36;8.77;;;5.57;;
56712;SDS011;42589;45.536;9.032;2022-07-29T16:41:37;8.20;;;5.72;;
56712;SDS011;42589;45.536;9.032;2022-07-29T16:45:36;14.70;;;6.85;;
56712;SDS011;42589;45.536;9.032;2022-07-29T16:49:36;12.80;;;8.80;;
56712;SDS011;42589;45.536;9.032;2022-07-29T16:53:35;9.65;;;6.18;;
56712;SDS011;42589;45.536;9.032;2022-07-29T16:57:34;9.77;;;6.85;;
56712;SDS011;42589;45.536;9.032;2022-07-29T17:01:33;9.55;;;6.90;;
56712;SDS011;42589;45.536;9.032;2022-07-29T17:05:33;10.48;;;5.80;;
56712;SDS011;42589;45.536;9.032;2022-07-29T17:09:34;8.35;;;5.90;;
56712;SDS011;42589;45.536;9.032;2022-07-29T17:13:33;7.50;;;5.53;;
56712;SDS011;42589;45.536;9.032;2022-07-29T17:17:33;7.65;;;5.43;;
56712;SDS011;42589;45.536;9.032;2022-07-29T17:21:32;9.20;;;6.47;;
56712;SDS011;42589;45.536;9.032;2022-07-29T17:25:33;9.88;;;7.03;;
56712;SDS011;42589;45.536;9.032;2022-07-29T17:29:32;9.60;;;7.55;;
56712;SDS011;42589;45.536;9.032;2022-07-29T17:33:31;9.38;;;6.30;;
56712;SDS011;42589;45.536;9.032;2022-07-29T17:37:31;8.35;;;6.10;;
56712;SDS011;42589;45.536;9.032;2022-07-29T17:41:31;8.02;;;5.90;;
56712;SDS011;42589;45.536;9.032;2022-07-29T17:45:30;9.23;;;6.60;;
56712;SDS011;42589;45.536;9.032;2022-07-29T17:49:29;8.63;;;6.82;;
56712;SDS011;42589;45.536;9.032;2022-07-29T17:53:29;9.73;;;7.50;;
56712;SDS011;42589;45.536;9.032;2022-07-29T17:57:29;9.57;;;7.78;;
56712;SDS011;42589;45.536;9.032;2022-07-29T18:01:29;10.23;;;6.35;;
56712;SDS011;42589;45.536;9.032;2022-07-29T18:05:28;8.20;;;5.85;;
56712;SDS011;42589;45.536;9.032;2022-07-29T18:09:28;8.55;;;6.38;;
56712;SDS011;42589;45.536;9.032;2022-07-29T18:13:28;8.55;;;6.15;;
56712;SDS011;42589;45.536;9.032;2022-07-29T18:17:30;10.38;;;6.15;;
56712;SDS011;42589;45.536;9.032;2022-07-29T18:21:29;9.93;;;6.28;;
56712;SDS011;42589;45.536;9.032;2022-07-29T18:25:28;9.10;;;6.57;;
56712;SDS011;42589;45.536;9.032;2022-07-29T18:29:31;7.93;;;5.82;;
56712;SDS011;42589;45.536;9.032;2022-07-29T18:33:32;8.30;;;5.35;;
56712;SDS011;42589;45.536;9.032;2022-07-29T18:37:32;7.63;;;5.22;;
56712;SDS011;42589;45.536;9.032;2022-07-29T18:41:31;6.35;;;5.15;;
56712;SDS011;42589;45.536;9.032;2022-07-29T18:45:30;6.15;;;5.10;;
56712;SDS011;42589;45.536;9.032;2022-07-29T18:49:29;6.68;;;5.07;;
56712;SDS011;42589;45.536;9.032;2022-07-29T18:53:29;6.93;;;4.55;;
56712;SDS011;42589;45.536;9.032;2022-07-29T18:57:30;5.88;;;4.10;;
56712;SDS011;42589;45.536;9.032;2022-07-29T19:01:31;8.77;;;4.22;;
56712;SDS011;42589;45.536;9.032;2022-07-29T19:05:31;6.28;;;4.20;;
56712;SDS011;42589;45.536;9.032;2022-07-29T19:09:31;6.10;;;4.35;;
56712;SDS011;42589;45.536;9.032;2022-07-29T19:13:30;5.05;;;4.40;;
56712;SDS011;42589;45.536;9.032;2022-07-29T19:17:29;4.82;;;4.25;;
56712;SDS011;42589;45.536;9.032;2022-07-29T19:21:29;4.85;;;4.30;;
56712;SDS011;42589;45.536;9.032;2022-07-29T19:25:32;5.00;;;4.43;;
56712;SDS011;42589;45.536;9.032;2022-07-29T19:29:32;5.10;;;4.43;;
56712;SDS011;42589;45.536;9.032;2022-07-29T19:33:32;5.43;;;4.28;;
56712;SDS011;42589;45.536;9.032;2022-07-29T19:37:31;6.80;;;4.03;;
56712;SDS011;42589;45.536;9.032;2022-07-29T19:41:34;5.88;;;4.68;;
56712;SDS011;42589;45.536;9.032;2022-07-29T19:45:34;6.82;;;5.22;;
56712;SDS011;42589;45.536;9.032;2022-07-29T19:49:33;6.57;;;5.00;;
56712;SDS011;42589;45.536;9.032;2022-07-29T19:53:32;8.73;;;5.60;;
56712;SDS011;42589;45.536;9.032;2022-07-29T19:57:32;6.15;;;5.30;;
56712;SDS011;42589;45.536;9.032;2022-07-29T20:01:31;6.28;;;5.60;;
56712;SDS011;42589;45.536;9.032;2022-07-29T20:05:30;6.80;;;4.53;;
56712;SDS011;42589;45.536;9.032;2022-07-29T20:09:30;7.75;;;4.65;;
56712;SDS011;42589;45.536;9.032;2022-07-29T20:13:29;7.70;;;5.30;;
56712;SDS011;42589;45.536;9.032;2022-07-29T20:17:29;6.80;;;5.30;;
56712;SDS011;42589;45.536;9.032;2022-07-29T20:21:31;5.70;;;4.97;;
56712;SDS011;42589;45.536;9.032;2022-07-29T20:25:31;6.70;;;5.70;;
56712;SDS011;42589;45.536;9.032;2022-07-29T20:29:30;5.47;;;4.80;;
56712;SDS011;42589;45.536;9.032;2022-07-29T20:33:32;6.28;;;4.50;;
56712;SDS011;42589;45.536;9.032;2022-07-29T20:37:34;7.07;;;4.70;;
56712;SDS011;42589;45.536;9.032;2022-07-29T20:41:34;4.57;;;3.90;;
56712;SDS011;42589;45.536;9.032;2022-07-29T20:45:34;6.07;;;4.55;;
56712;SDS011;42589;45.536;9.032;2022-07-29T20:49:34;5.93;;;4.85;;
56712;SDS011;42589;45.536;9.032;2022-07-29T20:53:34;6.70;;;5.07;;
56712;SDS011;42589;45.536;9.032;2022-07-29T20:57:35;7.03;;;5.40;;
56712;SDS011;42589;45.536;9.032;2022-07-29T21:01:35;7.70;;;5.25;;
56712;SDS011;42589;45.536;9.032;2022-07-29T21:05:35;6.60;;;5.60;;
56712;SDS011;42589;45.536;9.032;2022-07-29T21:13:34;7.53;;;6.45;;
56712;SDS011;42589;45.536;9.032;2022-07-29T21:17:40;7.05;;;6.28;;
56712;SDS011;42589;45.536;9.032;2022-07-29T21:21:40;8.85;;;7.50;;
56712;SDS011;42589;45.536;9.032;2022-07-29T21:25:39;11.50;;;8.32;;
56712;SDS011;42589;45.536;9.032;2022-07-29T21:29:42;10.20;;;7.47;;
56712;SDS011;42589;45.536;9.032;2022-07-29T21:33:42;12.43;;;9.93;;
56712;SDS011;42589;45.536;9.032;2022-07-29T21:37:41;13.45;;;10.30;;
56712;SDS011;42589;45.536;9.032;2022-07-29T21:41:40;11.73;;;9.93;;
56712;SDS011;42589;45.536;9.032;2022-07-29T21:45:40;11.43;;;10.23;;
56712;SDS011;42589;45.536;9.032;2022-07-29T21:49:40;12.88;;;9.77;;
56712;SDS011;42589;45.536;9.032;2022-07-29T21:53:39;14.65;;;10.68;;
56712;SDS011;42589;45.536;9.032;2022-07-29T21:57:39;14.80;;;11.25;;
56712;SDS011;42589;45.536;9.032;2022-07-29T22:01:38;12.93;;;10.95;;
56712;SDS011;42589;45.536;9.032;2022-07-29T22:05:37;17.08;;;12.32;;
56712;SDS011;42589;45.536;9.032;2022-07-29T22:09:37;16.45;;;11.95;;
56712;SDS011;42589;45.536;9.032;2022-07-29T22:13:36;16.02;;;13.10;;
56712;SDS011;42589;45.536;9.032;2022-07-29T22:17:35;16.77;;;13.82;;
56712;SDS011;42589;45.536;9.032;2022-07-29T22:21:35;18.83;;;14.48;;
56712;SDS011;42589;45.536;9.032;2022-07-29T22:25:34;18.85;;;13.68;;
56712;SDS011;42589;45.536;9.032;2022-07-29T22:29:33;18.92;;;14.68;;
56712;SDS011;42589;45.536;9.032;2022-07-29T22:33:32;19.10;;;13.70;;
56712;SDS011;42589;45.536;9.032;2022-07-29T22:37:31;20.05;;;13.57;;
56712;SDS011;42589;45.536;9.032;2022-07-29T22:41:31;16.50;;;12.18;;
56712;SDS011;42589;45.536;9.032;2022-07-29T22:45:30;18.23;;;13.57;;
56712;SDS011;42589;45.536;9.032;2022-07-29T22:49:29;16.77;;;12.75;;
56712;SDS011;42589;45.536;9.032;2022-07-29T22:53:28;19.25;;;14.88;;
56712;SDS011;42589;45.536;9.032;2022-07-29T22:57:28;23.27;;;15.25;;
56712;SDS011;42589;45.536;9.032;2022-07-29T23:01:27;20.40;;;15.07;;
56712;SDS011;42589;45.536;9.032;2022-07-29T23:05:26;17.90;;;13.18;;
56712;SDS011;42589;45.536;9.032;2022-07-29T23:09:25;17.80;;;13.68;;
56712;SDS011;42589;45.536;9.032;2022-07-29T23:13:25;21.55;;;15.95;;
56712;SDS011;42589;45.536;9.032;2022-07-29T23:17:24;20.73;;;16.58;;
56712;SDS011;42589;45.536;9.032;2022-07-29T23:21:24;22.85;;;17.38;;
56712;SDS011;42589;45.536;9.032;2022-07-29T23:25:24;24.55;;;18.92;;
56712;SDS011;42589;45.536;9.032;2022-07-29T23:29:23;26.30;;;19.08;;
56712;SDS011;42589;45.536;9.032;2022-07-29T23:33:22;24.02;;;17.73;;
56712;SDS011;42589;45.536;9.032;2022-07-29T23:37:22;26.17;;;18.60;;
56712;SDS011;42589;45.536;9.032;2022-07-29T23:41:21;26.88;;;18.83;;
56712;SDS011;42589;45.536;9.032;2022-07-29T23:45:21;23.70;;;17.45;;
56712;SDS011;42589;45.536;9.032;2022-07-29T23:49:20;27.58;;;17.92;;
56712;SDS011;42589;45.536;9.032;2022-07-29T23:53:19;24.92;;;17.52;;
56712;SDS011;42589;45.536;9.032;2022-07-29T23:57:18;24.30;;;17.77;;
